createdAt,value
2022-10-25T00:00:58.088Z,96717.94
2022-10-25T00:03:24.467Z,96710.25
2022-10-25T00:05:50.845Z,96706.69
2022-10-25T00:08:17.334Z,96701.19
2022-10-25T00:10:43.692Z,96697.69
2022-10-25T00:13:10.070Z,96696.72
2022-10-25T00:15:36.494Z,96690.41
2022-10-25T00:18:03.027Z,96682.41
2022-10-25T00:20:29.429Z,96686.94
2022-10-25T00:22:55.914Z,96685.66
2022-10-25T00:25:22.300Z,96684.97
2022-10-25T00:27:48.687Z,96703.53
2022-10-25T00:30:15.147Z,96699.56
2022-10-25T00:32:41.620Z,96699.75
2022-10-25T00:35:08.449Z,96698.28
2022-10-25T00:37:35.738Z,96698.56
2022-10-25T00:40:02.208Z,96688.69
2022-10-25T00:42:28.630Z,96703.09
2022-10-25T00:45:01.802Z,96704.69
2022-10-25T00:47:37.481Z,96707.03
2022-10-25T00:50:09.569Z,96706.00
2022-10-25T00:52:38.920Z,96707.38
2022-10-25T00:55:07.942Z,96702.50
2022-10-25T00:57:59.577Z,96701.13
2022-10-25T01:00:26.027Z,96697.22
2022-10-25T01:02:53.571Z,96691.84
2022-10-25T01:05:20.830Z,96697.38
2022-10-25T01:07:47.851Z,96702.78
2022-10-25T01:10:14.398Z,96708.59
2022-10-25T01:12:40.865Z,96707.72
2022-10-25T01:15:08.052Z,96706.75
2022-10-25T01:18:11.697Z,96703.88
2022-10-25T01:21:01.476Z,96699.66
2022-10-25T01:24:09.167Z,96693.06
2022-10-25T01:26:47.634Z,96698.88
2022-10-25T01:29:29.229Z,96691.22
2022-10-25T01:32:07.684Z,96682.31
2022-10-25T01:34:43.007Z,96692.34
2022-10-25T01:37:18.105Z,96690.63
2022-10-25T01:39:52.400Z,96703.13
2022-10-25T01:42:28.766Z,96687.03
2022-10-25T01:45:10.933Z,96691.72
2022-10-25T01:47:43.744Z,96684.69
2022-10-25T01:50:24.776Z,96689.41
2022-10-25T01:52:51.165Z,96688.63
2022-10-25T01:55:19.720Z,96693.88
2022-10-25T01:58:03.829Z,96691.56
2022-10-25T02:00:34.594Z,96698.09
2022-10-25T02:03:06.662Z,96690.38
2022-10-25T02:05:48.463Z,96692.00
2022-10-25T02:08:21.900Z,96684.53
2022-10-25T02:11:03.456Z,96678.81
2022-10-25T02:13:39.140Z,96680.91
2022-10-25T02:16:12.362Z,96680.31
2022-10-25T02:18:44.912Z,96685.03
2022-10-25T02:21:14.976Z,96686.22
2022-10-25T02:23:42.700Z,96677.22
2022-10-25T02:26:10.988Z,96676.00
2022-10-25T02:28:40.807Z,96674.66
2022-10-25T02:31:09.787Z,96678.91
2022-10-25T02:33:37.243Z,96683.38
2022-10-25T02:36:06.804Z,96682.34
2022-10-25T02:38:33.738Z,96685.00
2022-10-25T02:41:03.407Z,96687.88
2022-10-25T02:46:09.105Z,96685.38
2022-10-25T02:48:36.023Z,96690.69
2022-10-25T02:51:02.900Z,96681.13
2022-10-25T02:53:29.379Z,96690.25
2022-10-25T02:56:00.427Z,96692.19
2022-10-25T02:58:29.457Z,96686.09
2022-10-25T03:00:55.965Z,96690.84
2022-10-25T03:03:22.462Z,96691.41
2022-10-25T03:05:48.834Z,96696.31
2022-10-25T03:08:15.372Z,96696.75
2022-10-25T03:10:41.820Z,96694.72
2022-10-25T03:13:08.197Z,96691.72
2022-10-25T03:15:34.700Z,96686.03
2022-10-25T03:18:01.101Z,96688.41
2022-10-25T03:20:27.766Z,96677.34
2022-10-25T03:22:54.209Z,96684.03
2022-10-25T03:25:20.704Z,96678.34
2022-10-25T03:27:47.434Z,96682.09
2022-10-25T03:30:15.223Z,96673.03
2022-10-25T03:32:41.663Z,96681.00
2022-10-25T03:35:08.454Z,96679.94
2022-10-25T03:37:34.914Z,96679.50
2022-10-25T03:40:01.293Z,96680.50
2022-10-25T03:42:27.734Z,96688.78
2022-10-25T03:44:54.156Z,96684.38
2022-10-25T03:47:20.476Z,96689.63
2022-10-25T03:49:46.851Z,96680.09
2022-10-25T03:52:13.616Z,96680.28
2022-10-25T03:54:41.954Z,96693.94
2022-10-25T03:57:08.447Z,96693.44
2022-10-25T03:59:34.815Z,96693.94
2022-10-25T04:02:01.580Z,96697.75
2022-10-25T04:04:28.058Z,96696.19
2022-10-25T04:06:54.485Z,96700.41
2022-10-25T04:09:20.888Z,96705.34
2022-10-25T04:11:47.248Z,96710.66
2022-10-25T04:14:14.351Z,96705.78
2022-10-25T04:16:40.747Z,96718.34
2022-10-25T04:19:07.197Z,96718.69
2022-10-25T04:21:33.601Z,96717.84
2022-10-25T04:24:03.397Z,96720.22
2022-10-25T04:26:30.995Z,96722.06
2022-10-25T04:28:57.424Z,96715.47
2022-10-25T04:31:23.992Z,96727.25
2022-10-25T04:33:51.976Z,96725.84
2022-10-25T04:36:18.430Z,96735.56
2022-10-25T04:38:48.915Z,96729.44
2022-10-25T04:41:15.589Z,96732.97
2022-10-25T04:43:41.975Z,96732.72
2022-10-25T04:46:08.458Z,96725.84
2022-10-25T04:48:37.970Z,96728.97
2022-10-25T04:51:05.145Z,96733.00
2022-10-25T04:53:31.933Z,96727.00
2022-10-25T04:56:12.899Z,96732.25
2022-10-25T04:58:39.411Z,96734.91
2022-10-25T05:01:08.844Z,96736.56
2022-10-25T05:03:35.587Z,96732.50
2022-10-25T05:06:08.797Z,96733.41
2022-10-25T05:08:35.633Z,96737.25
2022-10-25T05:11:02.072Z,96739.13
2022-10-25T05:13:31.796Z,96739.16
2022-10-25T05:15:58.749Z,96739.72
2022-10-25T05:18:25.142Z,96735.78
2022-10-25T05:20:56.746Z,96733.13
2022-10-25T05:23:24.380Z,96737.13
2022-10-25T05:26:05.190Z,96740.63
2022-10-25T05:28:32.723Z,96739.94
2022-10-25T05:31:03.264Z,96747.38
2022-10-25T05:33:29.680Z,96746.78
2022-10-25T05:35:56.079Z,96750.47
2022-10-25T05:38:22.453Z,96747.28
2022-10-25T05:40:56.730Z,96761.31
2022-10-25T05:43:23.288Z,96767.97
2022-10-25T05:45:50.324Z,96766.41
2022-10-25T05:48:18.846Z,96771.25
2022-10-25T05:50:45.658Z,96771.13
2022-10-25T05:53:12.135Z,96761.97
2022-10-25T05:55:38.922Z,96767.50
2022-10-25T05:58:05.408Z,96774.97
2022-10-25T06:00:31.913Z,96783.44
2022-10-25T06:03:01.845Z,96777.34
2022-10-25T06:05:28.721Z,96780.56
2022-10-25T06:07:55.175Z,96786.13
2022-10-25T06:10:21.555Z,96794.66
2022-10-25T06:12:48.195Z,96797.00
2022-10-25T06:15:14.720Z,96796.66
2022-10-25T06:17:41.087Z,96796.91
2022-10-25T06:20:08.120Z,96800.97
2022-10-25T06:22:34.479Z,96808.59
2022-10-25T06:25:00.853Z,96811.06
2022-10-25T06:27:28.144Z,96815.72
2022-10-25T06:29:54.507Z,96813.06
2022-10-25T06:32:20.866Z,96824.34
2022-10-25T06:34:47.320Z,96831.72
2022-10-25T06:37:15.323Z,96836.44
2022-10-25T06:39:41.762Z,96841.75
2022-10-25T06:42:08.106Z,96843.94
2022-10-25T06:44:34.500Z,96847.06
2022-10-25T06:47:17.740Z,96852.25
2022-10-25T06:49:45.760Z,96856.53
2022-10-25T06:52:12.100Z,96851.94
2022-10-25T06:54:38.520Z,96851.66
2022-10-25T06:57:04.891Z,96859.31
2022-10-25T06:59:31.362Z,96870.50
2022-10-25T07:01:58.231Z,96859.88
2022-10-25T07:04:24.779Z,96867.75
2022-10-25T07:06:54.367Z,96875.00
2022-10-25T07:09:21.813Z,96868.28
2022-10-25T07:11:48.191Z,96881.84
2022-10-25T07:14:14.584Z,96878.94
2022-10-25T07:16:40.949Z,96872.53
2022-10-25T07:19:07.833Z,96868.28
2022-10-25T07:21:34.563Z,96871.41
2022-10-25T07:24:00.983Z,96878.00
2022-10-25T07:26:33.256Z,96882.53
2022-10-25T07:29:01.542Z,96885.25
2022-10-25T07:31:30.625Z,96879.94
2022-10-25T07:33:59.455Z,96884.13
2022-10-25T07:36:26.377Z,96892.28
2022-10-25T07:38:53.282Z,96894.94
2022-10-25T07:41:19.873Z,96902.56
2022-10-25T07:43:46.409Z,96908.56
2022-10-25T07:46:12.998Z,96903.22
2022-10-25T07:48:39.432Z,96903.50
2022-10-25T07:51:12.468Z,96908.78
2022-10-25T07:53:39.206Z,96908.19
2022-10-25T07:56:05.986Z,96906.31
2022-10-25T07:58:32.419Z,96908.19
2022-10-25T08:01:03.906Z,96907.53
2022-10-25T08:03:31.210Z,96906.56
2022-10-25T08:05:57.994Z,96913.47
2022-10-25T08:08:25.258Z,96911.31
2022-10-25T08:10:52.177Z,96920.03
2022-10-25T08:13:18.967Z,96907.22
2022-10-25T08:15:51.753Z,96912.91
2022-10-25T08:18:18.182Z,96908.81
2022-10-25T08:21:02.624Z,96910.06
2022-10-25T08:23:31.467Z,96909.56
2022-10-25T08:25:58.149Z,96910.41
2022-10-25T08:28:24.566Z,96907.34
2022-10-25T08:30:53.904Z,96904.13
2022-10-25T08:33:20.326Z,96904.75
2022-10-25T08:35:46.691Z,96908.34
2022-10-25T08:38:13.298Z,96904.63
2022-10-25T08:40:51.844Z,96914.13
2022-10-25T08:43:23.786Z,96911.97
2022-10-25T08:46:19.718Z,96918.28
2022-10-25T08:48:50.843Z,96914.47
2022-10-25T08:51:39.243Z,96920.00
2022-10-25T08:54:19.351Z,96924.19
2022-10-25T08:56:56.942Z,96913.97
2022-10-25T08:59:37.889Z,96926.94
2022-10-25T09:02:16.293Z,96928.81
2022-10-25T09:04:42.989Z,96928.47
2022-10-25T09:07:28.420Z,96932.16
2022-10-25T09:10:13.231Z,96918.91
2022-10-25T09:12:53.371Z,96919.56
2022-10-25T09:15:42.027Z,96921.88
2022-10-25T09:18:17.342Z,96919.13
2022-10-25T09:20:49.454Z,96920.13
2022-10-25T09:23:26.552Z,96918.97
2022-10-25T09:26:11.535Z,96914.94
2022-10-25T09:29:05.275Z,96918.59
2022-10-25T09:31:39.255Z,96918.81
2022-10-25T09:34:08.914Z,96923.56
2022-10-25T09:36:45.246Z,96926.72
2022-10-25T09:39:41.445Z,96923.78
2022-10-25T09:42:17.501Z,96923.41
2022-10-25T09:44:49.837Z,96923.69
2022-10-25T09:47:41.282Z,96922.31
2022-10-25T09:50:40.612Z,96931.34
2022-10-25T09:53:21.624Z,96926.47
2022-10-25T09:55:57.861Z,96924.63
2022-10-25T09:58:25.951Z,96928.00
2022-10-25T10:00:54.652Z,96925.03
2022-10-25T10:03:22.911Z,96938.50
2022-10-25T10:05:56.564Z,96930.88
2022-10-25T10:08:24.777Z,96932.56
2022-10-25T10:10:53.613Z,96933.00
2022-10-25T10:13:38.712Z,96930.88
2022-10-25T10:16:14.828Z,96927.56
2022-10-25T10:18:41.965Z,96932.91
2022-10-25T10:21:11.067Z,96931.81
2022-10-25T10:23:47.592Z,96928.03
2022-10-25T10:26:19.877Z,96931.81
2022-10-25T10:28:49.362Z,96929.34
2022-10-25T10:31:17.930Z,96929.84
2022-10-25T10:33:50.268Z,96926.31
2022-10-25T10:36:26.532Z,96927.31
2022-10-25T10:38:53.824Z,96926.75
2022-10-25T10:41:23.771Z,96920.81
2022-10-25T10:43:50.967Z,96921.78
2022-10-25T10:46:24.653Z,96920.41
2022-10-25T10:48:56.320Z,96924.28
2022-10-25T10:51:43.971Z,96923.38
2022-10-25T10:54:26.302Z,96928.94
2022-10-25T10:56:58.722Z,96928.44
2022-10-25T10:59:54.205Z,96928.94
2022-10-25T11:02:41.876Z,96931.81
2022-10-25T11:05:32.256Z,96933.88
2022-10-25T11:08:00.133Z,96937.81
2022-10-25T11:10:30.966Z,96933.50
2022-10-25T11:13:07.941Z,96932.88
2022-10-25T11:16:03.607Z,96937.91
2022-10-25T11:18:52.794Z,96935.47
2022-10-25T11:21:29.170Z,96932.97
2022-10-25T11:24:06.451Z,96932.09
2022-10-25T11:26:41.013Z,96929.31
2022-10-25T11:29:29.197Z,96923.19
2022-10-25T11:32:28.839Z,96918.81
2022-10-25T11:35:36.594Z,96907.84
2022-10-25T11:38:03.061Z,96911.31
2022-10-25T11:40:32.653Z,96914.28
2022-10-25T11:43:05.100Z,96910.69
2022-10-25T11:45:43.165Z,96906.34
2022-10-25T11:48:09.470Z,96910.31
2022-10-25T11:51:13.540Z,96904.53
2022-10-25T11:53:42.687Z,96909.47
2022-10-25T11:56:30.906Z,96905.72
2022-10-25T11:59:19.866Z,96910.66
2022-10-25T12:02:43.812Z,96902.53
2022-10-25T12:05:30.087Z,96897.47
2022-10-25T12:08:06.490Z,96903.91
2022-10-25T12:10:37.511Z,96893.72
2022-10-25T12:13:16.886Z,96887.28
2022-10-25T12:15:49.970Z,96883.81
2022-10-25T12:18:28.880Z,96886.69
2022-10-25T12:20:56.512Z,96878.13
2022-10-25T12:23:26.102Z,96885.50
2022-10-25T12:26:05.659Z,96890.25
2022-10-25T12:28:32.065Z,96884.91
2022-10-25T12:31:15.154Z,96883.03
2022-10-25T12:33:47.622Z,96885.84
2022-10-25T12:36:40.171Z,96875.88
2022-10-25T12:39:16.283Z,96881.13
2022-10-25T12:41:49.294Z,96883.03
2022-10-25T12:44:35.805Z,96876.28
2022-10-25T12:47:23.547Z,96887.75
2022-10-25T12:49:57.113Z,96873.63
2022-10-25T12:52:36.813Z,96871.22
2022-10-25T12:55:27.449Z,96873.97
2022-10-25T12:58:18.861Z,96876.03
2022-10-25T13:01:13.081Z,96880.59
2022-10-25T13:03:42.314Z,96874.75
2022-10-25T13:06:21.695Z,96882.47
2022-10-25T13:08:49.107Z,96890.81
2022-10-25T13:11:15.595Z,96880.88
2022-10-25T13:13:52.026Z,96879.78
2022-10-25T13:16:30.761Z,96884.66
2022-10-25T13:19:12.621Z,96876.44
2022-10-25T13:21:54.400Z,96884.19
2022-10-25T13:24:43.508Z,96882.00
2022-10-25T13:27:12.968Z,96877.72
2022-10-25T13:30:01.127Z,96875.06
2022-10-25T13:32:29.789Z,96875.06
2022-10-25T13:34:59.009Z,96878.50
2022-10-25T13:37:31.506Z,96877.06
2022-10-25T13:39:59.839Z,96885.38
2022-10-25T13:42:28.938Z,96876.28
2022-10-25T13:44:57.071Z,96885.75
2022-10-25T13:47:28.554Z,96872.56
2022-10-25T13:49:55.212Z,96876.03
2022-10-25T13:52:33.369Z,96882.34
2022-10-25T13:55:05.964Z,96877.59
2022-10-25T13:57:51.292Z,96886.28
2022-10-25T14:00:34.192Z,96886.09
2022-10-25T14:03:22.197Z,96882.66
2022-10-25T14:05:54.762Z,96878.38
2022-10-25T14:08:38.517Z,96878.72
2022-10-25T14:11:11.995Z,96881.06
2022-10-25T14:14:00.820Z,96876.03
2022-10-25T14:16:32.209Z,96864.72
2022-10-25T14:19:05.942Z,96873.81
2022-10-25T14:21:33.045Z,96874.16
2022-10-25T14:24:05.087Z,96863.75
2022-10-25T14:26:31.474Z,96865.00
2022-10-25T14:29:14.179Z,96865.97
2022-10-25T14:31:40.679Z,96875.06
2022-10-25T14:34:19.404Z,96869.72
2022-10-25T14:36:50.044Z,96863.09
2022-10-25T14:39:35.786Z,96865.59
2022-10-25T14:42:03.693Z,96869.97
2022-10-25T14:44:30.959Z,96868.38
2022-10-25T14:46:59.201Z,96865.22
2022-10-25T14:49:27.347Z,96870.69
2022-10-25T14:51:59.231Z,96868.94
2022-10-25T14:54:36.317Z,96861.53
2022-10-25T14:57:06.320Z,96859.75
2022-10-25T14:59:42.803Z,96860.38
2022-10-25T15:02:17.687Z,96859.41
2022-10-25T15:04:47.578Z,96856.50
2022-10-25T15:07:36.659Z,96864.53
2022-10-25T15:12:35.798Z,96858.03
2022-10-25T15:15:31.534Z,96862.28
2022-10-25T15:17:57.959Z,96864.97
2022-10-25T15:20:27.512Z,96864.75
2022-10-25T15:23:03.701Z,96864.25
2022-10-25T15:25:33.051Z,96868.81
2022-10-25T15:28:13.455Z,96869.13
2022-10-25T15:30:56.333Z,96878.03
2022-10-25T15:33:27.726Z,96876.44
2022-10-25T15:35:59.913Z,96874.69
2022-10-25T15:38:41.879Z,96871.53
2022-10-25T15:41:08.684Z,96868.69
2022-10-25T15:43:35.092Z,96859.69
2022-10-25T15:46:01.518Z,96861.88
2022-10-25T15:48:28.037Z,96862.47
2022-10-25T15:50:56.762Z,96863.06
2022-10-25T15:53:24.643Z,96863.69
2022-10-25T15:55:52.128Z,96877.31
2022-10-25T15:58:18.679Z,96879.00
2022-10-25T16:00:45.922Z,96873.97
2022-10-25T16:03:21.921Z,96870.81
2022-10-25T16:05:49.930Z,96868.25
2022-10-25T16:08:16.449Z,96878.72
2022-10-25T16:10:42.926Z,96879.00
2022-10-25T16:13:32.886Z,96882.47
2022-10-25T16:16:01.960Z,96883.84
2022-10-25T16:18:31.282Z,96888.13
2022-10-25T16:20:59.111Z,96886.84
2022-10-25T16:23:27.257Z,96891.97
2022-10-25T16:25:55.413Z,96887.22
2022-10-25T16:28:21.971Z,96887.22
2022-10-25T16:30:49.016Z,96883.78
2022-10-25T16:33:15.542Z,96886.25
2022-10-25T16:35:41.949Z,96887.81
2022-10-25T16:40:41.083Z,96887.31
2022-10-25T16:43:11.899Z,96895.22
2022-10-25T16:45:39.024Z,96897.72
2022-10-25T16:48:06.588Z,96903.84
2022-10-25T16:50:33.925Z,96896.94
2022-10-25T16:53:03.966Z,96902.84
2022-10-25T16:55:31.119Z,96902.66
2022-10-25T16:57:58.832Z,96901.06
2022-10-25T17:00:26.927Z,96916.88
2022-10-25T17:02:53.781Z,96916.47
2022-10-25T17:05:28.624Z,96918.84
2022-10-25T17:07:56.339Z,96916.19
2022-10-25T17:10:23.004Z,96923.38
2022-10-25T17:13:01.534Z,96929.31
2022-10-25T17:15:28.228Z,96936.81
2022-10-25T17:17:54.593Z,96934.34
2022-10-25T17:20:21.063Z,96930.09
2022-10-25T17:22:49.768Z,96930.97
2022-10-25T17:25:17.608Z,96935.31
2022-10-25T17:27:47.882Z,96927.31
2022-10-25T17:30:18.176Z,96943.31
2022-10-25T17:32:44.962Z,96953.97
2022-10-25T17:35:11.622Z,96948.13
2022-10-25T17:37:42.583Z,96947.03
2022-10-25T17:40:11.561Z,96954.25
2022-10-25T17:42:37.910Z,96948.41
2022-10-25T17:45:06.097Z,96941.59
2022-10-25T17:47:32.578Z,96944.28
2022-10-25T17:50:01.541Z,96939.81
2022-10-25T17:52:28.471Z,96937.72
2022-10-25T17:54:54.874Z,96931.41
2022-10-25T17:57:21.386Z,96931.19
2022-10-25T17:59:47.955Z,96935.16
2022-10-25T18:02:14.527Z,96946.25
2022-10-25T18:04:53.674Z,96948.59
2022-10-25T18:07:29.959Z,96947.38
2022-10-25T18:09:59.004Z,96947.63
2022-10-25T18:12:25.377Z,96941.47
2022-10-25T18:14:55.526Z,96950.13
2022-10-25T18:17:22.349Z,96952.13
2022-10-25T18:19:49.169Z,96952.53
2022-10-25T18:22:15.679Z,96942.66
2022-10-25T18:24:42.322Z,96953.22
2022-10-25T18:27:10.320Z,96952.72
2022-10-25T18:29:39.063Z,96959.16
2022-10-25T18:32:05.646Z,96951.22
2022-10-25T18:34:31.988Z,96954.41
2022-10-25T18:36:58.458Z,96956.75
2022-10-25T18:39:25.061Z,96956.56
2022-10-25T18:41:52.461Z,96952.28
2022-10-25T18:44:19.029Z,96953.34
2022-10-25T18:46:45.443Z,96957.16
2022-10-25T18:49:14.155Z,96966.09
2022-10-25T18:51:40.724Z,96963.78
2022-10-25T18:54:09.837Z,96964.88
2022-10-25T18:56:36.302Z,96964.97
2022-10-25T18:59:02.756Z,96967.28
2022-10-25T19:01:32.599Z,96965.75
2022-10-25T19:04:01.607Z,96971.94
2022-10-25T19:06:28.289Z,96975.09
2022-10-25T19:08:54.769Z,96973.81
2022-10-25T19:11:21.499Z,96971.38
2022-10-25T19:13:50.577Z,96971.44
2022-10-25T19:16:17.944Z,96967.78
2022-10-25T19:18:44.455Z,96956.19
2022-10-25T19:21:13.529Z,96952.97
2022-10-25T19:23:42.581Z,96953.44
2022-10-25T19:26:11.873Z,96956.09
2022-10-25T19:28:38.340Z,96954.44
2022-10-25T19:31:08.500Z,96963.47
2022-10-25T19:33:35.301Z,96956.03
2022-10-25T19:36:03.753Z,96946.03
2022-10-25T19:38:30.269Z,96952.97
2022-10-25T19:41:01.332Z,96957.19
2022-10-25T19:43:27.938Z,96959.50
2022-10-25T19:45:58.891Z,96957.91
2022-10-25T19:48:26.097Z,96959.41
2022-10-25T19:50:52.760Z,96960.50
2022-10-25T19:53:19.262Z,96961.03
2022-10-25T19:55:57.117Z,96960.00
2022-10-25T19:58:24.281Z,96959.00
2022-10-25T20:00:50.813Z,96962.66
2022-10-25T20:03:17.287Z,96962.09
2022-10-25T20:05:43.627Z,96957.41
2022-10-25T20:08:10.053Z,96964.34
2022-10-25T20:10:36.534Z,96973.97
2022-10-25T20:13:04.786Z,96976.34
2022-10-25T20:15:31.270Z,96986.00
2022-10-25T20:17:58.099Z,96995.63
2022-10-25T20:20:24.453Z,96986.19
2022-10-25T20:22:50.801Z,96979.44
2022-10-25T20:25:17.564Z,96974.22
2022-10-25T20:27:43.943Z,96970.94
2022-10-25T20:30:10.447Z,96955.91
2022-10-25T20:32:36.903Z,96961.75
2022-10-25T20:37:30.803Z,96973.19
2022-10-25T20:39:57.167Z,96987.78
2022-10-25T20:42:25.927Z,96996.28
2022-10-25T20:44:52.526Z,97012.63
2022-10-25T20:47:18.970Z,97009.88
2022-10-25T20:49:45.431Z,97006.94
2022-10-25T20:52:11.845Z,97017.59
2022-10-25T20:54:38.204Z,97022.56
2022-10-25T20:57:04.608Z,97018.03
2022-10-25T20:59:31.056Z,97024.44
2022-10-25T21:01:57.631Z,97031.34
2022-10-25T21:04:30.558Z,97023.66
2022-10-25T21:07:03.617Z,97024.56
2022-10-25T21:09:29.990Z,97025.34
2022-10-25T21:11:56.360Z,97023.78
2022-10-25T21:14:22.770Z,97023.84
2022-10-25T21:16:50.484Z,97019.03
2022-10-25T21:19:16.917Z,97027.25
2022-10-25T21:21:43.307Z,97028.53
2022-10-25T21:24:10.377Z,97031.28
2022-10-25T21:26:36.707Z,97034.75
2022-10-25T21:29:06.934Z,97038.25
2022-10-25T21:31:33.343Z,97037.75
2022-10-25T21:34:00.943Z,97028.66
2022-10-25T21:36:27.397Z,97020.34
2022-10-25T21:38:53.957Z,97022.69
2022-10-25T21:41:26.593Z,97038.03
2022-10-25T21:43:54.483Z,97028.25
2022-10-25T21:46:22.209Z,97030.97
2022-10-25T21:48:50.549Z,97030.47
2022-10-25T21:51:18.349Z,97037.66
2022-10-25T21:53:44.835Z,97043.53
2022-10-25T21:56:16.602Z,97032.75
2022-10-25T21:58:45.059Z,97026.78
2022-10-25T22:01:14.754Z,97033.25
2022-10-25T22:03:41.669Z,97033.84
2022-10-25T22:06:09.878Z,97036.97
2022-10-25T22:08:37.417Z,97037.78
2022-10-25T22:11:13.249Z,97041.75
2022-10-25T22:13:40.314Z,97042.31
2022-10-25T22:16:12.550Z,97034.84
2022-10-25T22:18:38.977Z,97032.22
2022-10-25T22:21:11.359Z,97029.06
2022-10-25T22:23:38.515Z,97027.41
2022-10-25T22:26:10.898Z,97036.78
2022-10-25T22:28:40.777Z,97037.13
2022-10-25T22:31:17.769Z,97030.03
2022-10-25T22:33:45.194Z,97030.53
2022-10-25T22:36:16.614Z,97037.63
2022-10-25T22:38:43.875Z,97039.78
2022-10-25T22:41:18.368Z,97032.59
2022-10-25T22:43:45.733Z,97028.34
2022-10-25T22:46:14.225Z,97027.94
2022-10-25T22:48:42.780Z,97033.41
2022-10-25T22:51:10.541Z,97052.84
2022-10-25T22:53:38.330Z,97046.47
2022-10-25T22:56:14.321Z,97048.28
2022-10-25T22:58:42.479Z,97049.38
2022-10-25T23:01:11.973Z,97055.28
2022-10-25T23:03:50.096Z,97056.28
2022-10-25T23:06:19.066Z,97045.13
2022-10-25T23:08:45.997Z,97042.66
2022-10-25T23:11:17.868Z,97044.31
2022-10-25T23:13:45.093Z,97046.19
2022-10-25T23:16:12.719Z,97044.59
2022-10-25T23:18:39.591Z,97038.19
2022-10-25T23:21:09.717Z,97034.38
2022-10-25T23:23:39.247Z,97034.94
2022-10-25T23:28:38.506Z,97032.09
2022-10-25T23:31:11.129Z,97033.25
2022-10-25T23:33:38.324Z,97042.06
2022-10-25T23:36:10.786Z,97036.03
2022-10-25T23:38:37.664Z,97031.44
2022-10-25T23:41:05.029Z,97038.06
2022-10-25T23:43:31.602Z,97032.22
2022-10-25T23:45:58.121Z,97038.31
2022-10-25T23:48:24.506Z,97034.94
2022-10-25T23:51:05.110Z,97041.84
2022-10-25T23:53:32.329Z,97044.22
2022-10-25T23:55:59.922Z,97053.84
2022-10-25T23:58:26.340Z,97066.66
